Weather observations for the past three days for
Bellaire, Antrim County Airport
Imperial (Metric)
Date Time (edt) Wind (mph) Vis. (mi.) Weather Sky Cond. Temperature (ºF) Relative Humidity Wind Chill (°F) Heat Index (°F) Pressure Precipitation (in)
Air Dwpt 6 hour altimeter (in) sea level (mb) 1 hr 3 hr 6 hr
Max. Min.
04 20:55 Calm 10.00 Overcast OVC038 67.5 64.4 90% 29.99 0.0
04 20:35 E 3 10.00 Overcast OVC036 68.2 64.6 88% 29.99 0.0
04 20:15 NE 3 10.00 Overcast BKN036 OVC044 68.5 65.3 89% 29.99 0.0
04 19:55 NE 5 10.00 Overcast OVC032 69.1 66.2 76.5 69.1 91% 29.99 0.0
04 19:35 Calm 10.00 Overcast BKN030 OVC037 69.8 67.5 92% 29.98 0.0
04 19:15 Calm 10.00 Overcast BKN028 OVC037 69.8 67.6 93% 29.97 0.0
04 18:55 Calm 10.00 Overcast SCT028 OVC037 70 67.6 92% 29.97 0.0
04 18:35 Calm 5.00 Fog/Mist SCT024 OVC035 69.8 67.5 92% 29.96 0.0
04 18:15 E 3 3.00 Drizzle OVC022 69.8 67.6 93% 29.96 0.0
04 17:35 NE 5 5.00 Drizzle SCT012 OVC020 70.3 68.2 93% 29.96 0.0
04 17:15 N 3 3.00 Rain BKN017 OVC022 70.7 68 91% 29.96 0.0
04 16:55 NW 5 7.00 Rain OVC017 72.1 68 87% 29.96 0.0
04 16:35 E 5 10.00 Light Rain OVC019 73.9 67.3 80% 29.95 0.0
04 16:15 E 5 10.00 Overcast OVC019 74.7 67.1 77% 29.96 0.0
04 15:55 E 3 10.00 Overcast OVC019 74.8 67.3 77% 29.96 0.0
04 15:35 E 5 10.00 Overcast OVC019 75.4 67.3 76% 77 29.96 0.0
04 15:15 SE 5 10.00 Overcast BKN019 OVC034 75.6 67.1 75% 77 29.96 0.0
04 14:55 Calm 10.00 Overcast SCT024 BKN032 OVC044 76.3 67.3 74% 78 29.95 0.0
04 14:35 Calm 10.00 Overcast SCT019 BKN024 OVC046 75.7 66.6 73% 77 29.95 0.0
04 14:15 E 5 10.00 Overcast BKN020 OVC027 75.7 67.1 75% 77 29.96 0.0
04 13:55 Calm 10.00 Overcast OVC016 75.2 66.7 75.2 67.3 75% 76 29.96 0.0
04 13:35 Calm 10.00 Overcast OVC016 75 66.6 75% 76 29.97 0.0
04 13:15 Calm 10.00 Overcast OVC016 74.8 66.4 75% 29.97 0.0
04 12:55 SE 3 10.00 Overcast OVC014 75.2 66.6 75% 76 29.96 0.0
04 12:35 SE 5 10.00 Overcast OVC014 73.6 66.4 78% 29.97 0.0
04 12:15 SE 6 10.00 Overcast OVC012 72.5 66 80% 29.97 0.0
04 11:55 E 3 10.00 Overcast OVC012 71.2 65.7 83% 29.97 0.0
04 11:35 E 5 10.00 Overcast OVC012 70.2 65.5 85% 29.98 0.0
04 11:15 SE 5 10.00 Overcast OVC012 69.8 65.3 86% 29.99 0.0
04 10:55 Calm 10.00 Overcast OVC010 69.3 65.1 87% 29.99 0.0
04 10:35 E 5 10.00 Overcast OVC008 69.3 65.3 87% 29.99 0.0
04 10:15 E 5 10.00 Overcast OVC008 69.3 65.5 88% 29.98 0.0
04 09:55 SE 3 10.00 Overcast OVC008 69.1 65.8 89% 29.99 0.0
04 09:35 Calm 10.00 Overcast OVC008 69.1 66 90% 29.98 0.0
04 09:15 E 6 10.00 Overcast OVC008 69.1 66.2 91% 29.97 0.0
04 08:55 E 3 10.00 Overcast OVC008 68.9 66 91% 29.97 0.0
04 08:35 Calm 10.00 Overcast OVC008 68.2 65.5 91% 29.96 0.0
04 08:15 Calm 10.00 Overcast OVC008 67.5 64.9 92% 29.97 0.0
04 07:55 Calm 10.00 Overcast OVC008 67.5 64.8 67.6 64.4 91% 29.97 0.0
04 07:35 NE 6 10.00 Light Rain OVC008 67.5 65.8 95% 29.95 0.0
04 07:15 Calm 10.00 Overcast OVC008 67.1 65.5 95% 29.98 0.0
04 06:55 Calm 10.00 Overcast OVC008 67.1 65.7 95% 29.98 0.0
04 06:35 Calm 10.00 Overcast OVC008 66.4 65.1 96% 29.97 0.0
04 06:15 Calm 7.00 Overcast OVC008 66.2 64.8 95% 29.95 0.0
04 05:55 Calm 7.00 Overcast OVC008 66 64.6 95% 29.96 0.0
04 05:35 Calm 7.00 Overcast OVC008 66.2 64.8 95% 29.97 0.0
04 05:15 Calm 7.00 Overcast SCT008 OVC027 65.5 64.4 96% 29.96 0.0
04 04:55 Calm 7.00 Overcast OVC027 65.1 64 96% 29.96 0.0
04 04:35 Calm 5.00 Fog/Mist OVC025 64.6 63.5 96% 29.94 0.0
04 04:15 Calm 7.00 Overcast OVC025 64.9 63.7 96% 29.95 0.0
04 03:35 Calm 5.00 Fog/Mist CLR 64.6 63.3 96% 29.95 0.0
04 03:15 Calm 7.00 Partly Cloudy SCT027 SCT100 64.6 63.1 95% 29.96 0.0
04 02:55 Calm 7.00 Mostly Cloudy SCT027 BKN100 64.9 63.5 95% 29.97 0.0
04 02:35 Calm 7.00 Fair CLR 65.7 64 95% 29.96 0.0
04 02:15 Calm 10.00 Mostly Cloudy SCT027 SCT085 BKN110 66.4 64.8 95% 29.96 0.0
04 01:55 Calm 5.00 Fog/Mist SCT027 SCT085 BKN110 66.2 64.8 70.7 66.2 95% 29.97 0.0
04 01:35 Calm 5.00 Fog/Mist BKN027 BKN085 BKN110 66.7 65.3 95% 29.98 0.0
04 01:15 Calm 7.00 Overcast OVC027 67.1 65.5 95% 29.99 0.0
04 00:55 Calm 5.00 Fog/Mist OVC029 66.7 65.3 95% 29.99 0.0
04 00:35 Calm 5.00 Fog/Mist OVC031 66.7 65.3 95% 30 0.0
04 00:15 Calm 5.00 Fog/Mist OVC031 66.7 65.3 95% 30 0.0
03 23:55 Calm 5.00 Fog/Mist OVC031 66.6 65.3 96% 30 0.0
03 23:35 Calm 5.00 Fog/Mist BKN031 BKN100 66.2 64.8 95% 29.99 0.0
03 23:15 Calm 7.00 Partly Cloudy SCT031 SCT100 66.9 65.3 95% 29.99 0.0
03 22:55 Calm 7.00 Partly Cloudy SCT018 SCT024 SCT031 66.7 65.3 95% 29.98 0.0
03 22:35 Calm 7.00 Overcast BKN018 BKN024 OVC031 67.3 65.7 95% 29.97 0.0
03 22:15 Calm 7.00 Mostly Cloudy SCT023 BKN031 67.3 65.7 95% 29.98 0.0
03 21:55 Calm 7.00 Mostly Cloudy SCT025 BKN031 68 66.2 94% 29.98 0.0
03 21:35 Calm 10.00 Mostly Cloudy SCT026 BKN031 68.2 66.4 94% 29.98 0.0
03 21:15 Calm 10.00 Mostly Cloudy SCT023 BKN029 68.4 66.4 93% 29.98 0.0
03 20:55 Calm 10.00 Overcast OVC029 69.6 66.7 91% 29.97 0.0
03 20:35 Calm 10.00 Mostly Cloudy BKN029 69.3 67.1 93% 29.96 0.0
03 20:15 Calm 10.00 Partly Cloudy SCT031 70.2 67.1 90% 29.95 0.0
03 19:55 Calm 10.00 Partly Cloudy SCT034 71.1 67.1 75.9 68.9 87% 29.95 0.0
03 19:35 Calm 10.00 Overcast OVC034 72.3 67.1 84% 29.95 0.0
03 19:15 Calm 10.00 Mostly Cloudy BKN034 72.7 67.3 83% 29.95 0.0
03 18:55 Calm 10.00 Fair CLR 73 67.5 83% 29.94 0.0
03 18:35 Calm 10.00 Fair CLR 73.9 66.6 78% 29.94 0.0
03 18:15 Calm 10.00 Fair CLR 75.4 66.4 74% 77 29.93 0.0
03 17:55 S 3 10.00 Fair CLR 75.6 65.1 70% 77 29.92 0.0
03 17:35 Calm 10.00 Fair CLR 75.4 64.4 69% 77 29.92 0.0
03 17:15 NE 8 10.00 Fair CLR 75.2 65.1 71% 77 29.9 0.0
03 16:55 N 5 10.00 Fair CLR 73.8 65.1 75% 29.91 0.0
03 16:35 N 3 10.00 Fair CLR 72.1 67.8 86% 29.92 0.0
03 16:15 Calm 10.00 Partly Cloudy SCT007 71.6 66.9 85% 29.93 0.0
03 15:55 Calm 10.00 Partly Cloudy SCT007 SCT070 SCT085 70.9 66.7 87% 29.95 0.0
03 15:35 Calm 10.00 Mostly Cloudy SCT023 SCT029 BKN070 70.7 66.6 87% 29.95 0.0
03 15:15 Calm 4.00 Light Rain SCT027 BKN042 OVC070 69.8 66 88% 29.97 0.0
03 14:55 Calm 10.00 Overcast SCT031 OVC055 69.4 66.6 91% 30 0.0
03 14:35 Calm 10.00 Overcast SCT046 OVC055 70 66.2 88% 29.99 0.0
03 14:15 S 5 10.00 Light Rain BKN046 OVC055 69.1 66.6 92% 30.02 0.0
03 13:55 Calm 5.00 Heavy Rain OVC044 71.1 65.3 75.7 58.1 82% 30.01 0.0
03 13:35 Calm 10.00 Overcast OVC045 71.2 66.4 85% 29.99 0.0
03 13:15 Calm 10.00 Mostly Cloudy SCT046 BKN050 72.7 65.3 78% 29.98 0.0
03 12:55 Calm 10.00 Partly Cloudy SCT044 SCT120 73.8 62.6 68% 29.96 0.0
03 12:35 Calm 10.00 Mostly Cloudy SCT044 SCT070 BKN110 74.8 62.1 65% 29.95 0.0
03 12:15 NE 5 10.00 Mostly Cloudy SCT046 SCT070 BKN100 75.2 60.8 61% 77 29.95 0.0
03 11:55 NE 5 10.00 Partly Cloudy SCT044 SCT100 75.2 61.2 62% 77 29.96 0.0
03 11:35 NE 6 10.00 Mostly Cloudy BKN042 75.6 61.7 62% 78 29.94 0.0
03 11:15 Calm 10.00 Overcast OVC042 73.4 61.7 67% 29.95 0.0
03 10:55 Calm 10.00 Overcast OVC044 72.1 62.6 72% 29.96 0.0
03 10:35 Calm 10.00 Mostly Cloudy BKN044 71.6 61.7 71% 29.97 0.0
03 10:15 Calm 10.00 Partly Cloudy SCT100 70.3 61.2 73% 29.97 0.0
03 09:55 Calm 10.00 Partly Cloudy SCT100 69.3 61 75% 29.97 0.0
03 09:35 Calm 10.00 Fair CLR 67.8 60.6 78% 29.97 0.0
03 09:15 Calm 10.00 Fair CLR 65.8 60.6 83% 29.97 0.0
03 08:55 Calm 10.00 Partly Cloudy SCT049 63.7 60.8 90% 29.97 0.0
03 08:35 Calm 10.00 Overcast OVC047 61.7 60.4 96% 29.97 0.0
03 08:15 Calm 10.00 Partly Cloudy SCT047 59.9 58.5 95% 29.98 0.0
03 07:55 Calm 10.00 Partly Cloudy SCT043 SCT049 58.1 57 59.7 56.7 96% 29.97 0.0
03 07:35 Calm 5.00 Fog/Mist SCT043 SCT049 57.6 56.5 96% 29.97 0.0
03 07:15 Calm 7.00 Fair CLR 57.6 56.5 96% 29.97 0.0
03 06:55 Calm 7.00 Fair CLR 57.2 55.9 96% 29.97 0.0
03 06:35 Calm 10.00 Fair CLR 57.4 56.3 96% 29.97 0.0
03 06:15 Calm 7.00 Fair CLR 57.2 55.9 96% 29.96 0.0
03 05:55 Calm 10.00 Fair CLR 57.9 57 97% 29.96 0.0
03 05:35 Calm 5.00 Fog/Mist CLR 57.7 56.7 96% 29.96 0.0
03 05:15 Calm 7.00 Fair CLR 57.6 56.5 96% 29.95 0.0
03 04:55 Calm 7.00 Partly Cloudy SCT100 58.1 57 96% 29.95 0.0
03 04:35 Calm 7.00 Mostly Cloudy BKN100 58.3 57.2 96% 29.96 0.0
03 04:15 Calm 10.00 Partly Cloudy SCT100 58.3 57.2 96% 29.96 0.0
03 03:55 Calm 5.00 Fog/Mist CLR 58.3 57.2 96% 29.95 0.0
03 03:35 Calm 5.00 Fog/Mist CLR 58.3 57.2 96% 29.95 0.0
03 03:15 Calm 7.00 Fair CLR 58.3 57 96% 29.95 0.0
03 02:55 Calm 7.00 Fair CLR 58.5 57.2 96% 29.95 0.0
03 02:35 Calm 7.00 Fair CLR 58.8 57.6 96% 29.95 0.0
03 02:15 Calm 10.00 Fair CLR 59.2 57.9 96% 29.95 0.0
03 01:55 Calm 7.00 Fair CLR 59.2 58.1 68.4 59.2 96% 29.95 0.0
03 01:35 Calm 3.00 Fog/Mist CLR 59.4 58.1 96% 29.95 0.0
03 01:15 Calm 5.00 Fog/Mist CLR 59.5 58.3 96% 29.95 0.0
03 00:55 Calm 5.00 Fog/Mist CLR 59.9 58.6 96% 29.95 0.0
03 00:35 Calm 7.00 Fair CLR 60.4 59.2 96% 29.94 0.0
03 00:15 Calm 10.00 Fair CLR 61.3 59.9 95% 29.94 0.0
02 23:55 Calm 7.00 Fair CLR 61 59.5 95% 29.93 0.0
02 23:35 Calm 7.00 Fair CLR 61.7 60.3 95% 29.93 0.0
02 23:15 Calm 10.00 Fair CLR 62.6 61 94% 29.93 0.0
02 22:55 Calm 10.00 Fair CLR 62.2 60.8 95% 29.93 0.0
02 22:35 Calm 10.00 Fair CLR 62.6 61.2 95% 29.93 0.0
02 22:15 Calm 10.00 Fair CLR 62.8 61.3 95% 29.93 0.0
02 21:55 Calm 10.00 Fair CLR 63.3 61.5 94% 29.93 0.0
02 21:35 Calm 10.00 Fair CLR 63.9 62.2 95% 29.93 0.0
02 21:15 Calm 10.00 Fair CLR 64.4 62.6 94% 29.92 0.0
02 20:55 Calm 10.00 Fair CLR 65.1 62.6 92% 29.91 0.0
02 20:35 Calm 10.00 Fair CLR 66 63.1 91% 29.91 0.0
02 20:15 Calm 10.00 Fair CLR 67.6 64 88% 29.9 0.0
02 19:55 Calm 10.00 Fair CLR 68.5 64.6 80.1 68.5 87% 29.91 0.0
02 19:35 Calm 10.00 Fair CLR 70.7 64.6 81% 29.91 0.0
02 19:15 Calm 10.00 Fair CLR 75.2 62.1 64% 77 29.92 0.0
02 18:55 Calm 10.00 Fair CLR 76.1 61.5 61% 78 29.91 0.0
02 18:35 Calm 10.00 Fair CLR 76.5 60.8 59% 78 29.92 0.0
02 18:15 W 3 10.00 Fair CLR 77 60.3 56% 79 29.92 0.0
02 17:55 W 5 10.00 Fair CLR 78.4 59.9 53% 80 29.91 0.0
02 17:35 Calm 10.00 Fair CLR 77.9 61.5 57% 79 29.91 0.0
02 17:15 W 3 10.00 Fair CLR 79 61.3 55% 80 29.91 0.0
02 16:55 W 5 10.00 Fair CLR 79 60.4 53% 80 29.91 0.0
02 16:35 W 3 10.00 Fair CLR 79.7 60.1 51% 81 29.91 0.0
02 16:15 Calm 10.00 Fair CLR 79.3 59.7 51% 80 29.92 0.0
02 15:55 NW 3 10.00 Fair CLR 78.4 60.6 54% 80 29.92 0.0
02 15:35 N 3 10.00 Fair CLR 76.6 62.6 62% 78 29.92 0.0
02 15:15 N 5 10.00 Fair CLR 77.5 63.9 63% 79 29.93 0.0
02 14:55 Calm 10.00 Fair CLR 77 61.7 59% 79 29.94 0.0
02 14:35 Calm 10.00 Fair CLR 75.4 59.2 57% 78 29.94 0.0
02 14:15 Calm 10.00 Fair CLR 76.1 61.9 62% 78 29.94 0.0
02 13:55 SW 3 10.00 Fair CLR 75.9 62.1 75.9 66.6 62% 78 29.94 0.0
02 13:35 Calm 10.00 Fair CLR 74.5 61 63% 29.95 0.0
02 13:15 Calm 10.00 Fair CLR 72.9 62.2 69% 29.94 0.0
02 12:55 Calm 10.00 Fair CLR 71.8 62.8 73% 29.92 0.0
02 12:35 Calm 10.00 Fair CLR 71.4 63.1 75% 29.92 0.0
02 12:15 Calm 10.00 Fair CLR 71.4 63.1 75% 29.95 0.0
02 11:55 Calm 10.00 Fair CLR 71.1 62.6 75% 29.95 0.0
02 11:35 Calm 10.00 Fair CLR 71.1 63.1 76% 29.95 0.0
02 11:15 Calm 10.00 Fair CLR 70 64.2 82% 29.96 0.0
02 10:55 NW 5 10.00 Partly Cloudy SCT110 69.4 65.5 87% 29.95 0.0
02 10:35 Calm 10.00 Fair CLR 68.7 64.4 86% 29.92 0.0
02 10:15 Calm 10.00 Partly Cloudy SCT120 67.1 64.4 91% 29.9 0.0
02 09:55 Calm 10.00 Light Rain SCT039 SCT060 BKN110 66.7 64 91% 29.91 0.0
02 09:35 Calm 10.00 Light Rain SCT100 BKN110 66.7 64.4 92% 29.93 0.0
02 09:15 Calm 10.00 Light Rain BKN100 OVC110 67.1 63.1 87% 29.95 0.0
02 08:55 N 5 5.00 Heavy Rain BKN100 BKN120 68.9 62.8 81% 29.95 0.0
02 08:35 W 5 10.00 Rain SCT095 BKN110 71.1 64.8 81% 30.02 0.0
02 08:15 W 7 5.00 Fog/Mist SCT002 OVC110 69.6 68.2 95% 30 0.0
02 07:55 Calm 2.50 Fog/Mist SCT110 68.4 67.1 74.8 66.7 96% 29.95 0.0
02 07:35 Calm 3.00 Fog/Mist SCT004 67.3 65.8 95% 29.93 0.0
02 07:15 Calm 1.50 Fog/Mist SCT004 66.9 65.5 95% 29.92 0.0
02 06:55 Calm 2.50 Fog/Mist CLR 68.2 66.7 95% 29.91 0.0
02 06:35 Calm 3.00 Fog/Mist CLR 68 66.6 95% 29.9 0.0
02 06:15 Calm 1.50 Fog/Mist SCT005 67.5 66 95% 29.91 0.0
02 05:55 Calm 0.75 Fog/Mist SCT005 68.2 66.6 95% 29.91 0.0
02 05:35 Calm 2.00 Fog/Mist CLR 69.1 67.5 95% 29.92 0.0
02 05:15 Calm 4.00 Fog/Mist CLR 70.3 68.5 94% 29.92 0.0
02 04:55 Calm 5.00 Fog/Mist CLR 70.9 68.4 92% 29.9 0.0
02 04:35 Calm 10.00 Fair CLR 72.7 69.3 89% 29.9 0.0
02 04:15 Calm 10.00 Fair CLR 73.4 70.9 92% 29.89 0.0
02 03:55 Calm 5.00 Fog/Mist CLR 72.1 70.2 94% 29.89 0.0
02 03:35 Calm 7.00 Fair CLR 74.5 72.3 93% 29.89 0.0
02 03:15 Calm 10.00 Fair CLR 74.7 72.5 93% 29.9 0.0
02 02:55 SW 3 7.00 Partly Cloudy SCT060 73.6 72 95% 29.9 0.0
02 02:35 Calm 5.00 Fog/Mist SCT060 72.5 70.9 95% 29.9 0.0
02 02:15 Calm 5.00 Fog/Mist SCT060 72.7 70.9 94% 29.89 0.0
02 01:55 Calm 7.00 Partly Cloudy SCT060 73.2 71.1 77.4 70.2 93% 29.89 0.0
02 01:35 SW 5 7.00 Fair CLR 73.2 71.6 95% 29.89 0.0
02 01:15 Calm 4.00 Fog/Mist SCT070 70.3 68.9 95% 29.89 0.0
02 00:55 Calm 0.75 Fog/Mist BKN004 BKN070 70.2 68.4 94% 29.89 0.0
02 00:35 Calm 1.75 Fog/Mist VV007 70.7 68.9 94% 29.89 0.0
02 00:15 Calm 3.00 Fog/Mist CLR 71.1 69.3 94% 29.89 0.0
01 23:55 Calm 2.50 Fog/Mist CLR 71.4 69.8 95% 29.89 0.0
01 23:35 Calm 2.50 Fog/Mist CLR 71.1 69.4 95% 29.9 0.0
01 22:55 Calm 2.50 Fog/Mist CLR 71.6 69.8 94% 29.9 0.0
01 22:35 Calm 4.00 Fog/Mist CLR 72 70.2 94% 29.9 0.0
01 22:15 Calm 3.00 Fog/Mist CLR 72 70 94% 29.9 0.0
01 21:55 Calm 4.00 Fog/Mist CLR 72.7 70.5 93% 29.89 0.0
01 21:35 Calm 4.00 Fog/Mist CLR 72.9 70.9 94% 29.89 0.0
01 21:15 Calm 7.00 Fair CLR 73.6 71.6 94% 29.9 0.0
Date Time (edt) Wind (mph) Vis. (mi.) Weather Sky Cond. Air Dwpt Max. Min. Relative Humidity Wind Chill (°F) Heat Index (°F) altimeter (in) sea level (mb) 1 hr 3 hr 6 hr
6 hour
Temperature (ºF) Pressure Precipitation (in)